Time;durP1;ratioP1;P1;durP2;ratioP2;P2;SDS_P1;SDS_P2;PMS_P1;PMS_P2;Temp;Humidity;BMP_temperature;BMP_pressure;BME280_temperature;BME280_humidity;BME280_pressure;Samples;Min_cycle;Max_cycle;Signal;HPM_P1;HPM_P2
2023/05/02 00:01:03;;;;;;;37.60;15.30;;;;;;;;;;5023926;28;20050;-77
2023/05/02 00:03:31;;;;;;;36.47;16.05;;;;;;;;;;5022696;28;20057;-77
2023/05/02 00:05:59;;;;;;;36.90;15.65;;;;;;;;;;5023323;28;20054;-77
2023/05/02 00:08:25;;;;;;;37.20;15.35;;;;;;;;;;5021712;28;20069;-77
2023/05/02 00:10:52;;;;;;;37.97;15.82;;;;;;;;;;5024019;28;20054;-76
2023/05/02 00:13:18;;;;;;;35.15;16.05;;;;;;;;;;5025705;28;20108;-77
2023/05/02 00:15:44;;;;;;;32.95;15.32;;;;;;;;;;5027005;28;20513;-77
2023/05/02 00:18:11;;;;;;;38.15;16.02;;;;;;;;;;5036263;28;20057;-76
2023/05/02 00:20:38;;;;;;;33.85;14.52;;;;;;;;;;5036057;28;20116;-77
2023/05/02 00:23:05;;;;;;;39.17;16.23;;;;;;;;;;5032986;28;20085;-77
2023/05/02 00:25:31;;;;;;;30.85;14.45;;;;;;;;;;5024667;28;20139;-77
2023/05/02 00:27:57;;;;;;;30.25;14.45;;;;;;;;;;5025925;28;20536;-77
2023/05/02 00:30:24;;;;;;;30.45;14.02;;;;;;;;;;5024819;28;20987;-77
2023/05/02 00:32:52;;;;;;;29.83;14.38;;;;;;;;;;5026044;28;20050;-78
2023/05/02 00:35:19;;;;;;;36.45;15.90;;;;;;;;;;5025076;28;20061;-77
2023/05/02 00:37:45;;;;;;;32.80;13.55;;;;;;;;;;5025367;28;20432;-77
2023/05/02 00:40:12;;;;;;;29.75;14.40;;;;;;;;;;5021632;28;20058;-78
2023/05/02 00:42:38;;;;;;;29.10;13.40;;;;;;;;;;5016714;28;20128;-77
2023/05/02 00:45:05;;;;;;;35.80;13.32;;;;;;;;;;5025363;28;20542;-78
2023/05/02 00:47:32;;;;;;;25.23;11.73;;;;;;;;;;5025455;28;20112;-77
2023/05/02 00:49:59;;;;;;;32.72;13.07;;;;;;;;;;5023374;28;20081;-78
2023/05/02 00:52:27;;;;;;;29.42;12.65;;;;;;;;;;5025578;28;20061;-77
2023/05/02 00:54:53;;;;;;;28.35;12.38;;;;;;;;;;5025069;28;20060;-77
2023/05/02 00:57:20;;;;;;;25.30;11.20;;;;;;;;;;5023592;28;20054;-77
2023/05/02 00:59:46;;;;;;;31.65;11.73;;;;;;;;;;5023962;28;20112;-76
2023/05/02 01:02:29;;;;;;;23.23;10.73;;;;;;;;;;5024430;28;20073;-76
2023/05/02 01:05:10;;;;;;;20.63;9.43;;;;;;;;;;5025465;28;20141;-77
2023/05/02 01:07:55;;;;;;;15.98;8.00;;;;;;;;;;5023155;28;20053;-77
2023/05/02 01:10:21;;;;;;;14.13;7.35;;;;;;;;;;5026421;28;20062;-77
2023/05/02 01:12:56;;;;;;;19.40;7.70;;;;;;;;;;5024646;28;21005;-77
2023/05/02 01:15:23;;;;;;;17.95;7.63;;;;;;;;;;5023541;28;20085;-77
2023/05/02 01:17:51;;;;;;;17.80;6.22;;;;;;;;;;5024559;28;20058;-77
2023/05/02 01:20:20;;;;;;;16.67;6.95;;;;;;;;;;5025980;28;20549;-77
2023/05/02 01:22:47;;;;;;;15.65;6.63;;;;;;;;;;5024336;28;20108;-78
2023/05/02 01:25:13;;;;;;;14.52;5.63;;;;;;;;;;5024729;28;20053;-77
2023/05/02 01:27:58;;;;;;;12.18;5.35;;;;;;;;;;5024931;28;20176;-77
2023/05/02 01:30:27;;;;;;;10.75;4.93;;;;;;;;;;5024019;28;20084;-77
2023/05/02 01:32:54;;;;;;;13.52;4.60;;;;;;;;;;5025839;28;20062;-77
2023/05/02 01:35:22;;;;;;;9.05;3.30;;;;;;;;;;5025184;28;20054;-77
2023/05/02 01:37:48;;;;;;;13.60;3.38;;;;;;;;;;5026789;28;20053;-77
2023/05/02 01:40:17;;;;;;;9.52;2.55;;;;;;;;;;5024776;28;20057;-78
2023/05/02 01:42:44;;;;;;;11.32;3.15;;;;;;;;;;5026152;28;20057;-78
2023/05/02 01:45:11;;;;;;;8.30;2.58;;;;;;;;;;5025096;28;20554;-77
2023/05/02 01:47:39;;;;;;;8.75;2.95;;;;;;;;;;5026436;28;20137;-77
2023/05/02 01:50:10;;;;;;;7.10;2.20;;;;;;;;;;5024619;28;20058;-77
2023/05/02 01:52:37;;;;;;;7.50;2.20;;;;;;;;;;5024991;28;20058;-76
2023/05/02 01:55:05;;;;;;;6.75;2.20;;;;;;;;;;5023751;28;20513;-78
2023/05/02 01:57:31;;;;;;;11.15;2.50;;;;;;;;;;5024009;28;20054;-77
2023/05/02 01:59:58;;;;;;;8.02;2.25;;;;;;;;;;5023143;28;20513;-75
2023/05/02 02:02:28;;;;;;;10.52;3.15;;;;;;;;;;5022078;28;20683;-78
2023/05/02 02:04:55;;;;;;;6.00;2.75;;;;;;;;;;5024090;28;20054;-77
2023/05/02 02:07:22;;;;;;;12.70;3.00;;;;;;;;;;5011505;28;20073;-75
2023/05/02 02:09:48;;;;;;;13.02;2.95;;;;;;;;;;5022880;28;20602;-76
2023/05/02 02:12:16;;;;;;;11.52;3.20;;;;;;;;;;5024122;28;20054;-75
2023/05/02 02:14:45;;;;;;;10.15;2.95;;;;;;;;;;5021809;28;20432;-75
2023/05/02 02:17:14;;;;;;;11.00;2.67;;;;;;;;;;5022763;28;20054;-76
2023/05/02 02:19:41;;;;;;;9.15;3.38;;;;;;;;;;5036261;28;20168;-75
2023/05/02 02:22:08;;;;;;;7.57;2.22;;;;;;;;;;5043997;28;20053;-76
2023/05/02 02:24:36;;;;;;;13.10;2.95;;;;;;;;;;5033363;28;20137;-75
2023/05/02 02:27:02;;;;;;;9.20;2.83;;;;;;;;;;5023048;28;20066;-76
2023/05/02 02:29:29;;;;;;;11.02;2.78;;;;;;;;;;5023317;28;20060;-75
2023/05/02 02:31:55;;;;;;;6.43;2.30;;;;;;;;;;5022152;28;20058;-76
2023/05/02 02:34:22;;;;;;;10.93;2.70;;;;;;;;;;5023303;28;20092;-76
2023/05/02 02:36:48;;;;;;;9.25;2.10;;;;;;;;;;5021843;28;20476;-76
2023/05/02 02:39:33;;;;;;;11.85;2.70;;;;;;;;;;5022525;28;20054;-76
2023/05/02 02:42:19;;;;;;;6.38;2.10;;;;;;;;;;5023281;28;20950;-75
2023/05/02 02:44:50;;;;;;;7.20;1.80;;;;;;;;;;5022504;28;20054;-76
2023/05/02 02:47:16;;;;;;;10.02;2.13;;;;;;;;;;5022103;28;20165;-75
2023/05/02 02:49:46;;;;;;;8.43;1.88;;;;;;;;;;5023195;28;20636;-76
2023/05/02 02:52:31;;;;;;;10.88;1.90;;;;;;;;;;5021757;28;20053;-77
2023/05/02 02:54:59;;;;;;;10.25;1.90;;;;;;;;;;5017515;28;20061;-77
2023/05/02 02:57:29;;;;;;;4.55;1.63;;;;;;;;;;5010037;28;20056;-76
2023/05/02 03:00:04;;;;;;;6.00;1.70;;;;;;;;;;5023613;28;20151;-76
2023/05/02 03:02:31;;;;;;;7.68;1.80;;;;;;;;;;5022480;28;20151;-75
2023/05/02 03:04:59;;;;;;;7.65;1.73;;;;;;;;;;5023295;28;20050;-76
2023/05/02 03:07:28;;;;;;;8.93;1.50;;;;;;;;;;5020639;28;20054;-76
2023/05/02 03:09:55;;;;;;;5.82;1.70;;;;;;;;;;5028164;28;20140;-76
2023/05/02 03:12:21;;;;;;;8.02;1.73;;;;;;;;;;5025360;28;20050;-76
2023/05/02 03:14:48;;;;;;;10.98;1.50;;;;;;;;;;5021911;28;20060;-76
2023/05/02 03:17:14;;;;;;;6.38;1.23;;;;;;;;;;5019858;28;20595;-76
2023/05/02 03:19:41;;;;;;;8.63;1.80;;;;;;;;;;5021526;28;20132;-76
2023/05/02 03:22:07;;;;;;;7.10;1.48;;;;;;;;;;5022393;28;20688;-76
2023/05/02 03:24:33;;;;;;;13.85;1.75;;;;;;;;;;5020608;28;20054;-77
2023/05/02 03:26:59;;;;;;;8.70;1.60;;;;;;;;;;5020765;28;20642;-76
2023/05/02 03:29:27;;;;;;;7.95;1.40;;;;;;;;;;5020239;28;20187;-76
2023/05/02 03:31:53;;;;;;;5.57;1.40;;;;;;;;;;5021024;28;20050;-76
2023/05/02 03:34:21;;;;;;;6.95;2.15;;;;;;;;;;5023223;28;20169;-76
2023/05/02 03:36:48;;;;;;;6.22;1.63;;;;;;;;;;5022439;28;20058;-76
2023/05/02 03:39:14;;;;;;;7.80;1.70;;;;;;;;;;5019616;28;20081;-77
2023/05/02 03:41:41;;;;;;;5.22;1.42;;;;;;;;;;5020154;28;20050;-76
2023/05/02 03:44:07;;;;;;;8.90;1.60;;;;;;;;;;5022369;28;20164;-76
2023/05/02 03:46:33;;;;;;;7.72;1.60;;;;;;;;;;5024038;28;20062;-76
2023/05/02 03:49:00;;;;;;;7.45;1.92;;;;;;;;;;5023710;28;20105;-76
2023/05/02 03:51:26;;;;;;;10.73;2.20;;;;;;;;;;5024384;28;20140;-76
2023/05/02 03:53:53;;;;;;;11.18;1.70;;;;;;;;;;5026495;28;20060;-76
2023/05/02 03:56:20;;;;;;;8.80;1.52;;;;;;;;;;5024657;28;20050;-76
2023/05/02 03:58:47;;;;;;;7.57;1.65;;;;;;;;;;5022555;28;20061;-75
2023/05/02 04:01:16;;;;;;;11.95;2.20;;;;;;;;;;5025050;28;20053;-76
2023/05/02 04:03:42;;;;;;;11.65;1.85;;;;;;;;;;5023176;28;20050;-75
2023/05/02 04:06:09;;;;;;;7.38;1.63;;;;;;;;;;5026434;28;20054;-77
2023/05/02 04:08:35;;;;;;;7.68;1.85;;;;;;;;;;5022778;28;20535;-76
2023/05/02 04:11:02;;;;;;;15.75;2.33;;;;;;;;;;5027868;28;20176;-76
2023/05/02 04:13:29;;;;;;;8.00;2.45;;;;;;;;;;5024014;28;20056;-76
2023/05/02 04:15:55;;;;;;;10.43;2.10;;;;;;;;;;5024664;28;20069;-76
2023/05/02 04:18:21;;;;;;;8.38;2.15;;;;;;;;;;5021842;28;20054;-76
2023/05/02 04:20:49;;;;;;;7.60;1.67;;;;;;;;;;5025677;28;20599;-76
2023/05/02 04:23:16;;;;;;;9.57;1.67;;;;;;;;;;5024552;28;20277;-76
2023/05/02 04:25:52;;;;;;;8.40;1.63;;;;;;;;;;5025466;28;20060;-76
2023/05/02 04:28:22;;;;;;;6.13;1.83;;;;;;;;;;5037831;28;20213;-76
2023/05/02 04:30:49;;;;;;;8.40;1.80;;;;;;;;;;5024903;28;20056;-76
2023/05/02 04:33:17;;;;;;;10.38;1.80;;;;;;;;;;5024675;28;20504;-75
2023/05/02 04:35:43;;;;;;;11.57;2.03;;;;;;;;;;5037414;28;20113;-75
2023/05/02 04:38:10;;;;;;;8.82;2.70;;;;;;;;;;5023962;28;20053;-75
2023/05/02 04:40:36;;;;;;;7.57;1.77;;;;;;;;;;5025520;28;20067;-76
2023/05/02 04:43:02;;;;;;;9.77;1.58;;;;;;;;;;5024783;28;20057;-75
2023/05/02 04:45:29;;;;;;;11.68;1.90;;;;;;;;;;5026080;28;20046;-75
2023/05/02 04:47:55;;;;;;;8.70;1.80;;;;;;;;;;5023058;28;20820;-75
2023/05/02 04:50:22;;;;;;;15.00;2.17;;;;;;;;;;5023399;28;20054;-75
2023/05/02 04:52:48;;;;;;;9.65;1.90;;;;;;;;;;5027519;28;20377;-75
2023/05/02 04:55:14;;;;;;;8.68;1.80;;;;;;;;;;5025995;28;20160;-75
2023/05/02 04:57:41;;;;;;;8.25;2.38;;;;;;;;;;5023676;28;20050;-75
2023/05/02 05:00:07;;;;;;;8.35;1.73;;;;;;;;;;5022724;28;20965;-75
2023/05/02 05:02:33;;;;;;;7.15;1.65;;;;;;;;;;5021247;28;20054;-74
2023/05/02 05:05:00;;;;;;;8.80;1.95;;;;;;;;;;5023033;28;20057;-75
2023/05/02 05:07:27;;;;;;;13.70;2.08;;;;;;;;;;5025034;28;20058;-75
2023/05/02 05:09:53;;;;;;;10.77;2.10;;;;;;;;;;5032066;28;20058;-75
2023/05/02 05:12:20;;;;;;;7.85;2.13;;;;;;;;;;5024057;28;20148;-75
2023/05/02 05:14:46;;;;;;;11.27;2.38;;;;;;;;;;5018758;28;20976;-76
2023/05/02 05:17:13;;;;;;;15.73;2.38;;;;;;;;;;5024033;28;21179;-77
2023/05/02 05:19:39;;;;;;;12.73;2.15;;;;;;;;;;5023016;28;20057;-77
2023/05/02 05:22:06;;;;;;;9.32;2.63;;;;;;;;;;5022951;28;20065;-75
2023/05/02 05:24:33;;;;;;;8.20;1.88;;;;;;;;;;5022357;28;20053;-77
2023/05/02 05:26:59;;;;;;;9.68;2.03;;;;;;;;;;5023671;28;20064;-76
2023/05/02 05:29:25;;;;;;;10.70;2.08;;;;;;;;;;5023511;28;20050;-76
2023/05/02 05:31:51;;;;;;;11.88;2.17;;;;;;;;;;5023006;28;20060;-77
2023/05/02 05:34:18;;;;;;;8.02;2.03;;;;;;;;;;5020399;28;20090;-77
2023/05/02 05:36:44;;;;;;;13.30;2.80;;;;;;;;;;5023824;28;20057;-76
2023/05/02 05:39:12;;;;;;;9.90;2.22;;;;;;;;;;5024096;28;20141;-75
2023/05/02 05:41:38;;;;;;;10.82;2.35;;;;;;;;;;5019673;28;20106;-76
2023/05/02 05:44:04;;;;;;;14.77;2.78;;;;;;;;;;5023546;28;20054;-76
2023/05/02 05:46:31;;;;;;;13.48;2.58;;;;;;;;;;5024588;28;20054;-76
2023/05/02 05:48:57;;;;;;;12.93;3.13;;;;;;;;;;5023619;28;20144;-76
2023/05/02 05:51:23;;;;;;;15.25;2.70;;;;;;;;;;5022206;28;20077;-77
2023/05/02 05:53:50;;;;;;;7.95;2.40;;;;;;;;;;5022689;28;20053;-78
2023/05/02 05:56:17;;;;;;;10.75;2.67;;;;;;;;;;5024759;28;20133;-76
2023/05/02 05:58:43;;;;;;;12.38;2.58;;;;;;;;;;5024139;28;20591;-75
2023/05/02 06:01:10;;;;;;;9.23;2.17;;;;;;;;;;5032900;28;20065;-75
2023/05/02 06:03:37;;;;;;;9.30;2.42;;;;;;;;;;5031179;28;20050;-75
2023/05/02 06:06:03;;;;;;;12.05;2.55;;;;;;;;;;5025462;28;20056;-78
2023/05/02 06:08:30;;;;;;;12.13;3.10;;;;;;;;;;5022649;28;20054;-78
2023/05/02 06:10:56;;;;;;;14.00;3.40;;;;;;;;;;5026689;28;20076;-77
2023/05/02 06:13:22;;;;;;;9.52;2.45;;;;;;;;;;5027857;28;20493;-78
2023/05/02 06:15:49;;;;;;;14.55;2.97;;;;;;;;;;5018377;28;20050;-75
2023/05/02 06:18:15;;;;;;;10.07;2.80;;;;;;;;;;5025101;28;20058;-75
2023/05/02 06:20:42;;;;;;;12.90;2.95;;;;;;;;;;5024737;28;20061;-75
2023/05/02 06:23:08;;;;;;;20.35;3.28;;;;;;;;;;5024165;28;20611;-75
2023/05/02 06:25:37;;;;;;;11.00;2.13;;;;;;;;;;5015561;28;20058;-75
2023/05/02 06:28:04;;;;;;;8.27;2.97;;;;;;;;;;5014747;28;20058;-75
2023/05/02 06:30:31;;;;;;;9.85;2.40;;;;;;;;;;5024428;28;20054;-74
2023/05/02 06:32:57;;;;;;;11.13;2.35;;;;;;;;;;5017104;28;20057;-76
2023/05/02 06:35:24;;;;;;;11.32;2.50;;;;;;;;;;5023610;28;20049;-75
2023/05/02 06:37:50;;;;;;;12.07;2.58;;;;;;;;;;5023095;28;21006;-75
2023/05/02 06:40:16;;;;;;;12.38;2.00;;;;;;;;;;5028676;28;20049;-76
2023/05/02 06:42:45;;;;;;;14.85;2.88;;;;;;;;;;5024731;28;20054;-75
2023/05/02 06:45:12;;;;;;;7.63;2.40;;;;;;;;;;5024011;28;20053;-76
2023/05/02 06:47:38;;;;;;;10.02;2.20;;;;;;;;;;5024838;28;20058;-75
2023/05/02 06:50:05;;;;;;;13.25;2.40;;;;;;;;;;5022821;28;20072;-76
2023/05/02 06:52:31;;;;;;;22.55;3.08;;;;;;;;;;5027396;28;20084;-75
2023/05/02 06:54:58;;;;;;;20.63;2.92;;;;;;;;;;5023852;28;20050;-75
2023/05/02 06:57:24;;;;;;;15.95;2.58;;;;;;;;;;5026974;28;20053;-76
2023/05/02 06:59:50;;;;;;;9.57;2.00;;;;;;;;;;5043147;28;20059;-75
2023/05/02 07:02:17;;;;;;;9.07;1.65;;;;;;;;;;5023322;28;20054;-75
2023/05/02 07:04:43;;;;;;;7.65;1.65;;;;;;;;;;5023162;28;20145;-74
2023/05/02 07:07:09;;;;;;;12.50;2.47;;;;;;;;;;5023102;28;20060;-76
2023/05/02 07:09:36;;;;;;;12.85;2.42;;;;;;;;;;5039627;28;20141;-74
2023/05/02 07:12:02;;;;;;;9.25;2.08;;;;;;;;;;5024031;28;20505;-76
2023/05/02 07:14:32;;;;;;;8.48;2.22;;;;;;;;;;5023739;28;20056;-75
2023/05/02 07:16:58;;;;;;;9.77;2.10;;;;;;;;;;5023498;28;20061;-76
2023/05/02 07:19:27;;;;;;;11.50;2.22;;;;;;;;;;5023496;28;20061;-76
2023/05/02 07:21:54;;;;;;;10.43;2.55;;;;;;;;;;5026553;28;20061;-76
2023/05/02 07:24:20;;;;;;;9.50;2.50;;;;;;;;;;5026024;28;20054;-76
2023/05/02 07:26:46;;;;;;;64.38;5.90;;;;;;;;;;5027433;28;20136;-77
2023/05/02 07:29:13;;;;;;;14.35;2.75;;;;;;;;;;5024963;28;20104;-76
2023/05/02 07:31:39;;;;;;;9.38;2.63;;;;;;;;;;5027081;28;20444;-77
2023/05/02 07:34:05;;;;;;;19.33;2.70;;;;;;;;;;5025559;28;20050;-75
2023/05/02 07:36:32;;;;;;;7.93;2.00;;;;;;;;;;5027634;28;20077;-76
2023/05/02 07:38:58;;;;;;;10.60;2.25;;;;;;;;;;5027269;28;20057;-76
2023/05/02 07:41:24;;;;;;;7.57;2.10;;;;;;;;;;5026143;28;20058;-76
2023/05/02 07:43:51;;;;;;;11.32;2.60;;;;;;;;;;5027428;28;20064;-75
2023/05/02 07:46:17;;;;;;;8.38;1.92;;;;;;;;;;5029145;28;20801;-78
2023/05/02 07:48:44;;;;;;;17.20;3.10;;;;;;;;;;5028131;28;20100;-76
2023/05/02 07:51:10;;;;;;;16.15;2.53;;;;;;;;;;5030903;28;20061;-76
2023/05/02 07:53:36;;;;;;;9.52;2.40;;;;;;;;;;5024605;28;20054;-76
2023/05/02 07:56:05;;;;;;;12.85;1.95;;;;;;;;;;5026310;28;20132;-78
2023/05/02 07:58:31;;;;;;;9.38;2.10;;;;;;;;;;5025034;28;20054;-76
2023/05/02 08:00:58;;;;;;;10.13;2.08;;;;;;;;;;5023122;28;20100;-75
2023/05/02 08:03:25;;;;;;;12.65;2.25;;;;;;;;;;5023917;28;20064;-75
2023/05/02 08:05:52;;;;;;;8.30;2.28;;;;;;;;;;5021228;28;20061;-75
2023/05/02 08:08:19;;;;;;;11.68;2.28;;;;;;;;;;5026080;28;20100;-76
2023/05/02 08:10:45;;;;;;;9.07;2.00;;;;;;;;;;5022837;28;20134;-77
2023/05/02 08:13:11;;;;;;;9.63;1.90;;;;;;;;;;5023061;28;20054;-75
2023/05/02 08:15:38;;;;;;;7.07;2.03;;;;;;;;;;5025970;28;20144;-77
2023/05/02 08:18:05;;;;;;;8.60;1.88;;;;;;;;;;5023552;28;20065;-77
2023/05/02 08:20:31;;;;;;;10.15;2.20;;;;;;;;;;5024063;28;20137;-75
2023/05/02 08:22:57;;;;;;;6.65;1.65;;;;;;;;;;5019810;28;20831;-75
2023/05/02 08:25:25;;;;;;;7.70;2.10;;;;;;;;;;5022958;28;20509;-73
2023/05/02 08:27:52;;;;;;;7.30;2.00;;;;;;;;;;5023633;28;20057;-75
2023/05/02 08:30:18;;;;;;;11.07;2.17;;;;;;;;;;5014935;28;20054;-77
2023/05/02 08:32:45;;;;;;;5.68;1.73;;;;;;;;;;5020729;28;20509;-75
2023/05/02 08:35:11;;;;;;;7.35;1.92;;;;;;;;;;5022909;28;20144;-76
2023/05/02 08:37:38;;;;;;;6.45;1.60;;;;;;;;;;5019622;28;20140;-76
2023/05/02 08:40:05;;;;;;;12.70;2.08;;;;;;;;;;5021038;28;20050;-73
2023/05/02 08:42:32;;;;;;;7.80;2.00;;;;;;;;;;5024299;28;20069;-73
2023/05/02 08:44:59;;;;;;;8.30;1.70;;;;;;;;;;5025425;28;20065;-72
2023/05/02 08:47:26;;;;;;;5.78;1.65;;;;;;;;;;5023585;28;20529;-73
2023/05/02 08:49:54;;;;;;;4.43;1.48;;;;;;;;;;5027702;28;20081;-73
2023/05/02 08:52:21;;;;;;;7.57;2.15;;;;;;;;;;5028957;28;20053;-73
2023/05/02 08:54:48;;;;;;;8.27;1.58;;;;;;;;;;5022921;28;20049;-72
2023/05/02 08:57:14;;;;;;;7.90;1.75;;;;;;;;;;5024637;28;20085;-74
2023/05/02 08:59:41;;;;;;;9.10;1.60;;;;;;;;;;5022894;28;20049;-73
2023/05/02 09:02:15;;;;;;;8.45;1.50;;;;;;;;;;5022269;28;20062;-73
2023/05/02 09:04:41;;;;;;;9.82;1.13;;;;;;;;;;5026103;28;20054;-71
2023/05/02 09:07:08;;;;;;;5.25;1.15;;;;;;;;;;5022911;28;20089;-72
2023/05/02 09:12:11;;;;;;;8.13;1.48;;;;;;;;;;5194130;22;20139;-72
2023/05/02 09:14:38;;;;;;;4.55;1.42;;;;;;;;;;4993926;28;20050;-73
2023/05/02 09:17:04;;;;;;;6.15;1.48;;;;;;;;;;4998573;28;20058;-72
2023/05/02 09:19:30;;;;;;;5.60;1.48;;;;;;;;;;5001530;28;20062;-72
2023/05/02 09:22:00;;;;;;;5.05;1.38;;;;;;;;;;4993288;28;20057;-72
2023/05/02 09:24:27;;;;;;;6.15;1.20;;;;;;;;;;4995939;28;20050;-72
2023/05/02 09:27:03;;;;;;;4.60;1.25;;;;;;;;;;4988720;28;20936;-71
2023/05/02 09:29:34;;;;;;;5.38;1.20;;;;;;;;;;4996585;28;20054;-74
2023/05/02 09:32:02;;;;;;;8.30;1.52;;;;;;;;;;5002342;28;20141;-72
2023/05/02 09:34:30;;;;;;;5.45;1.70;;;;;;;;;;4997293;28;20059;-72
2023/05/02 09:36:57;;;;;;;8.70;1.98;;;;;;;;;;4993308;28;20058;-75
2023/05/02 09:39:24;;;;;;;9.13;1.40;;;;;;;;;;4998088;28;20062;-72
2023/05/02 09:44:36;;;;;;;5.72;1.35;;;;;;;;;;5414431;22;20129;-72
2023/05/02 09:47:05;;;;;;;7.32;1.55;;;;;;;;;;5024418;28;20054;-73
2023/05/02 09:49:39;;;;;;;6.22;1.50;;;;;;;;;;5016327;28;20054;-74
2023/05/02 09:52:09;;;;;;;5.88;1.17;;;;;;;;;;5012891;28;20118;-72
2023/05/02 09:54:36;;;;;;;4.70;1.13;;;;;;;;;;5017351;28;20560;-74
2023/05/02 09:57:02;;;;;;;9.23;1.60;;;;;;;;;;5006474;28;20054;-71
2023/05/02 09:59:29;;;;;;;8.07;1.50;;;;;;;;;;5019337;28;20057;-71
2023/05/02 10:01:57;;;;;;;6.72;1.40;;;;;;;;;;5022840;28;20081;-72
2023/05/02 10:04:24;;;;;;;5.57;1.45;;;;;;;;;;5012169;28;20064;-71
2023/05/02 10:06:51;;;;;;;8.10;1.60;;;;;;;;;;5024768;28;20054;-71
2023/05/02 10:09:18;;;;;;;7.03;1.98;;;;;;;;;;5024124;28;20058;-72
2023/05/02 10:11:50;;;;;;;7.10;1.80;;;;;;;;;;5025265;28;20626;-73
2023/05/02 10:14:18;;;;;;;7.28;2.00;;;;;;;;;;5016128;28;20057;-71
2023/05/02 10:16:50;;;;;;;8.05;1.55;;;;;;;;;;5017754;28;20060;-73
2023/05/02 10:19:22;;;;;;;7.40;1.90;;;;;;;;;;5012213;28;20049;-73
2023/05/02 10:21:48;;;;;;;6.65;1.80;;;;;;;;;;5012158;28;20544;-73
2023/05/02 10:24:15;;;;;;;7.80;1.88;;;;;;;;;;5017438;28;20141;-73
2023/05/02 10:26:42;;;;;;;6.40;2.10;;;;;;;;;;5025981;28;20522;-73
2023/05/02 10:29:09;;;;;;;6.05;1.83;;;;;;;;;;5019348;28;20141;-71
2023/05/02 10:31:38;;;;;;;8.10;2.13;;;;;;;;;;5010770;28;20054;-72
2023/05/02 10:34:06;;;;;;;5.85;1.77;;;;;;;;;;5015367;28;20091;-71
2023/05/02 10:36:32;;;;;;;5.85;1.88;;;;;;;;;;5008946;28;20054;-72
2023/05/02 10:38:59;;;;;;;6.07;1.70;;;;;;;;;;5019756;28;20083;-72
2023/05/02 10:41:27;;;;;;;7.10;2.00;;;;;;;;;;5020451;28;20090;-72
2023/05/02 10:43:54;;;;;;;9.25;1.90;;;;;;;;;;5023281;28;20086;-71
2023/05/02 10:46:28;;;;;;;5.57;1.60;;;;;;;;;;5019622;28;21151;-71
2023/05/02 10:49:08;;;;;;;8.05;1.88;;;;;;;;;;5023825;28;21038;-72
2023/05/02 10:51:35;;;;;;;4.57;1.50;;;;;;;;;;5016519;28;20077;-71
2023/05/02 10:54:20;;;;;;;5.53;1.83;;;;;;;;;;5024755;28;20077;-71
2023/05/02 10:57:02;;;;;;;8.25;2.10;;;;;;;;;;5017170;28;20055;-72
2023/05/02 10:59:39;;;;;;;8.73;1.85;;;;;;;;;;5024847;28;20587;-72
2023/05/02 11:02:24;;;;;;;7.15;2.03;;;;;;;;;;5021489;28;20049;-72
2023/05/02 11:04:58;;;;;;;8.57;2.25;;;;;;;;;;5023979;28;20054;-71
2023/05/02 11:07:25;;;;;;;9.00;1.88;;;;;;;;;;5016674;28;20054;-72
2023/05/02 11:09:52;;;;;;;8.20;1.85;;;;;;;;;;5024525;28;20089;-72
2023/05/02 11:12:36;;;;;;;7.85;2.35;;;;;;;;;;5021189;28;20128;-72
2023/05/02 11:15:03;;;;;;;5.22;1.73;;;;;;;;;;5002924;28;20062;-72
2023/05/02 11:17:50;;;;;;;12.45;2.25;;;;;;;;;;5015210;28;20054;-72
2023/05/02 11:20:20;;;;;;;5.72;1.75;;;;;;;;;;5023031;28;20054;-72
2023/05/02 11:22:46;;;;;;;11.70;2.87;;;;;;;;;;5006843;28;20559;-72
2023/05/02 11:25:32;;;;;;;10.30;2.25;;;;;;;;;;5013775;28;20172;-72
2023/05/02 11:27:59;;;;;;;10.73;2.50;;;;;;;;;;5023888;28;20058;-72
2023/05/02 11:30:40;;;;;;;19.15;4.15;;;;;;;;;;5023777;28;20046;-71
2023/05/02 11:33:07;;;;;;;9.57;2.83;;;;;;;;;;5018636;28;20104;-72
2023/05/02 11:35:34;;;;;;;9.27;2.20;;;;;;;;;;5022948;28;20050;-72
2023/05/02 11:38:02;;;;;;;11.65;3.60;;;;;;;;;;5020162;28;20050;-72
2023/05/02 11:40:28;;;;;;;9.82;2.45;;;;;;;;;;5020970;28;20124;-72
2023/05/02 11:42:56;;;;;;;5.13;1.75;;;;;;;;;;5014874;28;20060;-72
2023/05/02 11:45:32;;;;;;;10.13;2.95;;;;;;;;;;5013199;28;20159;-71
2023/05/02 11:47:58;;;;;;;8.32;2.60;;;;;;;;;;5010609;28;20050;-71
2023/05/02 11:50:26;;;;;;;6.65;1.98;;;;;;;;;;5015675;28;20050;-72
2023/05/02 11:52:52;;;;;;;12.00;2.15;;;;;;;;;;5005585;28;20054;-72
2023/05/02 11:55:19;;;;;;;8.70;2.15;;;;;;;;;;5025675;28;20054;-71
2023/05/02 11:57:45;;;;;;;10.55;2.60;;;;;;;;;;5009866;28;20062;-71
2023/05/02 12:00:12;;;;;;;10.88;2.60;;;;;;;;;;5019850;28;20546;-72
2023/05/02 12:02:39;;;;;;;6.72;2.45;;;;;;;;;;5003468;28;20543;-72
2023/05/02 12:05:07;;;;;;;14.23;2.90;;;;;;;;;;5011569;28;20054;-71
2023/05/02 12:07:40;;;;;;;11.10;2.72;;;;;;;;;;5022946;28;20456;-71
2023/05/02 12:10:06;;;;;;;10.05;2.55;;;;;;;;;;5020571;28;20289;-71
2023/05/02 12:12:33;;;;;;;12.90;3.13;;;;;;;;;;5021474;28;20053;-71
2023/05/02 12:15:03;;;;;;;7.97;2.70;;;;;;;;;;5013293;28;20065;-72
2023/05/02 12:17:30;;;;;;;9.38;2.60;;;;;;;;;;5027137;28;20141;-72
2023/05/02 12:19:57;;;;;;;6.68;2.20;;;;;;;;;;5012124;28;20165;-72
2023/05/02 12:22:24;;;;;;;12.80;2.10;;;;;;;;;;5008753;28;20054;-72
2023/05/02 12:24:52;;;;;;;11.18;2.58;;;;;;;;;;5026896;28;20068;-71
2023/05/02 12:27:19;;;;;;;12.38;2.80;;;;;;;;;;5018330;28;20593;-71
2023/05/02 12:29:46;;;;;;;10.98;2.45;;;;;;;;;;5016586;28;20054;-71
2023/05/02 12:32:25;;;;;;;10.23;3.08;;;;;;;;;;5021469;28;20064;-72
2023/05/02 12:34:53;;;;;;;6.68;2.40;;;;;;;;;;5020767;28;20058;-72
2023/05/02 12:37:23;;;;;;;7.50;2.50;;;;;;;;;;5013856;28;20082;-72
2023/05/02 12:39:49;;;;;;;9.10;2.38;;;;;;;;;;5021494;28;20145;-72
2023/05/02 12:42:16;;;;;;;10.30;2.30;;;;;;;;;;5023524;28;20129;-71
2023/05/02 12:44:44;;;;;;;8.00;2.40;;;;;;;;;;5024318;28;20054;-71
2023/05/02 12:47:11;;;;;;;6.35;2.30;;;;;;;;;;5021012;28;20049;-71
2023/05/02 12:49:48;;;;;;;9.50;2.50;;;;;;;;;;5006623;28;20051;-71
2023/05/02 12:52:15;;;;;;;8.32;2.30;;;;;;;;;;5008777;28;20053;-72
2023/05/02 12:54:42;;;;;;;6.70;2.00;;;;;;;;;;5016049;28;20522;-72
2023/05/02 12:57:09;;;;;;;7.60;2.17;;;;;;;;;;5016232;28;20053;-71
2023/05/02 12:59:36;;;;;;;7.93;2.10;;;;;;;;;;5007805;28;20214;-72
2023/05/02 13:02:03;;;;;;;7.90;2.40;;;;;;;;;;5022350;28;20050;-71
2023/05/02 13:04:39;;;;;;;7.50;2.28;;;;;;;;;;5020160;28;20060;-72
2023/05/02 13:07:06;;;;;;;8.77;1.98;;;;;;;;;;5026102;28;20049;-71
2023/05/02 13:09:33;;;;;;;6.68;2.00;;;;;;;;;;5024877;28;20045;-72
2023/05/02 13:11:59;;;;;;;9.35;2.53;;;;;;;;;;5016252;28;20060;-70
2023/05/02 13:14:26;;;;;;;5.30;1.85;;;;;;;;;;5016817;28;21036;-72
2023/05/02 13:16:53;;;;;;;10.43;2.70;;;;;;;;;;5020799;28;20054;-72
2023/05/02 13:19:21;;;;;;;8.20;2.13;;;;;;;;;;5031787;28;20057;-71
2023/05/02 13:21:47;;;;;;;6.97;2.10;;;;;;;;;;5008993;28;20107;-71
2023/05/02 13:24:16;;;;;;;9.52;2.13;;;;;;;;;;5009593;28;20053;-71
2023/05/02 13:26:42;;;;;;;8.02;2.00;;;;;;;;;;5025459;28;20054;-74
2023/05/02 13:29:10;;;;;;;7.78;2.08;;;;;;;;;;5013171;28;20054;-73
2023/05/02 13:31:37;;;;;;;7.40;2.00;;;;;;;;;;5006195;28;20460;-71
2023/05/02 13:34:04;;;;;;;7.13;2.08;;;;;;;;;;5013345;28;20059;-71
2023/05/02 13:36:30;;;;;;;8.18;2.00;;;;;;;;;;5024347;28;20061;-72
2023/05/02 13:38:56;;;;;;;10.15;2.83;;;;;;;;;;5008114;28;20904;-70
2023/05/02 13:41:26;;;;;;;5.50;2.05;;;;;;;;;;5020003;28;20057;-71
2023/05/02 13:43:52;;;;;;;7.90;2.08;;;;;;;;;;5025656;28;20050;-72
2023/05/02 13:46:19;;;;;;;8.98;2.33;;;;;;;;;;5025376;28;20054;-72
2023/05/02 13:48:45;;;;;;;7.00;2.10;;;;;;;;;;5010451;28;20050;-70
2023/05/02 13:51:11;;;;;;;7.10;2.40;;;;;;;;;;5012138;28;20057;-72
2023/05/02 13:53:38;;;;;;;5.40;1.73;;;;;;;;;;5022134;28;20065;-72
2023/05/02 13:56:04;;;;;;;5.20;1.88;;;;;;;;;;5030870;28;20065;-72
2023/05/02 13:58:30;;;;;;;7.05;2.25;;;;;;;;;;5020208;28;20136;-71
2023/05/02 14:00:57;;;;;;;5.82;1.70;;;;;;;;;;5023794;28;20060;-72
2023/05/02 14:03:23;;;;;;;8.00;2.20;;;;;;;;;;5008630;28;20051;-72
2023/05/02 14:05:50;;;;;;;6.00;1.80;;;;;;;;;;5013152;28;20082;-71
2023/05/02 14:08:18;;;;;;;6.80;1.90;;;;;;;;;;5018416;28;21296;-72
2023/05/02 14:10:44;;;;;;;6.45;1.90;;;;;;;;;;5024752;28;20050;-73
2023/05/02 14:13:10;;;;;;;5.82;1.75;;;;;;;;;;5020380;28;20069;-71
2023/05/02 14:15:37;;;;;;;5.93;2.15;;;;;;;;;;5014333;28;20515;-71
2023/05/02 14:18:03;;;;;;;4.90;1.50;;;;;;;;;;5005000;28;20054;-72
2023/05/02 14:20:29;;;;;;;7.65;1.75;;;;;;;;;;5023675;28;20907;-72
2023/05/02 14:22:56;;;;;;;5.68;1.85;;;;;;;;;;5019055;28;20045;-71
2023/05/02 14:25:22;;;;;;;11.35;2.10;;;;;;;;;;5014806;28;20132;-72
2023/05/02 14:27:49;;;;;;;5.03;1.52;;;;;;;;;;5004221;28;20054;-72
2023/05/02 14:30:15;;;;;;;5.88;1.70;;;;;;;;;;5011250;28;20077;-72
2023/05/02 14:32:41;;;;;;;8.68;1.98;;;;;;;;;;5020703;28;20065;-71
2023/05/02 14:35:08;;;;;;;7.43;2.10;;;;;;;;;;5024349;28;20237;-72
2023/05/02 14:37:34;;;;;;;5.07;1.80;;;;;;;;;;5026677;28;20053;-72
2023/05/02 14:40:01;;;;;;;6.50;1.58;;;;;;;;;;5023150;28;20614;-72
2023/05/02 14:42:28;;;;;;;6.05;2.00;;;;;;;;;;5020898;28;20125;-72
2023/05/02 14:44:54;;;;;;;6.38;1.95;;;;;;;;;;5021896;28;20049;-71